Terminal Aerodrome Forecast
Issued by NWS Portland, OR

Home | Current Version | Previous Version | Text Only | Print | Product List | Glossary On
Versions: 1 2 3 4 5 6 7 8 9 10 11 12 13 14 15 16 17 18 19 20 21 22 23 24 25 26 27 28 29 30 31 32 33 34 35
000
FTUS46 KPQR 310520
TAFTTD
TAF
KTTD 310520Z 3106/0106 VRB03KT P6SM SCT030 BKN070
     FM310800 16005KT P6SM BKN050
     FM311700 14005KT P6SM BKN100
     FM312200 15004KT P6SM VCSH SCT050 BKN100=

USA.gov is the U.S. government's official web portal to all federal, state and local government web resources and services.